Details for QantasLink at YBBN




Go Back


Latest METAR
Local Time

YBBN 240012Z 06006KT 5000 -RA FEW004 SCT010 BKN038 24/23 Q1013 FM0020 03009KT 9000 -SHRA -RA SCT012 BKN020 BKN050 TEMPO 0012/0312 2000 SHRA BKN008

24/02/2018, 10:20:30

Description
Results
QantasLink Logo
Number of Pilots based at YBBN
0 Pilots Based here
Number of QantasLink Flights Departed from YBBN
1 Flights Departed
Number of QantasLink Flights Arrived at YBBN
0 Flights Arrived
Number of QantasLink Schedules Departing from YBBN
195 Schedules
Number of QantasLink Schedules Arriving at YBBN
207 Schedules
Number of QantasLink Schedules Departing from YBBN availible today
30 Schedules Today
Number of QantasLink Schedules Arriving at YBBN availible today
36 Schedules Today
Average Landing Rate at YBBN
-196 fpm
QantasLink Average Landing Rate at YBBN
0 fpm
Total Fuel Purchased at YBBN by QantasLink
4,866.59 kgs / 10,728.88 lbs

Pilots Based at YBBN


Pilot ID
Pilot Name
Pilot Rank
No. of Flights
No. of Flying Hours
There are no pilots assigned to this hub!   Will you be the first?
Content